Time;durP1;ratioP1;P1;durP2;ratioP2;P2;SDS_P1;SDS_P2;PMS_P1;PMS_P2;Temp;Humidity;BMP_temperature;BMP_pressure;BME280_temperature;BME280_humidity;BME280_pressure;Samples;Min_cycle;Max_cycle;Signal;HPM_P1;HPM_P2
2022/04/24 00:00:21;;;;;;;12.40;5.93;;;;;;;12.66;66.51;100361.63;5011803;27;104274;-49
2022/04/24 00:02:48;;;;;;;8.88;6.10;;;;;;;12.67;66.18;100365.97;5013770;28;102420;-51
2022/04/24 00:05:14;;;;;;;9.90;5.75;;;;;;;12.67;66.63;100362.44;5013581;28;102022;-49
2022/04/24 00:07:43;;;;;;;10.23;5.63;;;;;;;12.67;66.61;100363.22;5014268;28;102596;-49
2022/04/24 00:10:10;;;;;;;8.83;5.87;;;;;;;12.66;66.59;100356.16;5028876;28;103917;-48
2022/04/24 00:12:37;;;;;;;10.02;6.38;;;;;;;12.66;66.70;100350.69;5032854;27;102487;-49
2022/04/24 00:15:05;;;;;;;9.27;6.30;;;;;;;12.67;66.52;100362.44;5014245;27;102321;-48
2022/04/24 00:17:37;;;;;;;11.57;6.10;;;;;;;12.66;66.47;100361.63;5014224;28;101983;-49
2022/04/24 00:20:05;;;;;;;7.63;5.72;;;;;;;12.67;66.66;100368.69;5012259;28;104148;-49
2022/04/24 00:22:32;;;;;;;11.07;6.47;;;;;;;12.67;66.57;100362.44;5022777;28;102056;-49
2022/04/24 00:25:00;;;;;;;9.93;6.28;;;;;;;12.66;66.76;100361.63;5032950;27;102007;-49
2022/04/24 00:27:27;;;;;;;11.15;6.30;;;;;;;12.66;66.66;100347.97;5024297;27;102712;-49
2022/04/24 00:29:55;;;;;;;10.13;5.95;;;;;;;12.67;66.45;100355.03;5011640;28;103938;-49
2022/04/24 00:32:23;;;;;;;13.70;6.85;;;;;;;12.67;66.82;100357.78;5013164;28;101914;-50
2022/04/24 00:34:53;;;;;;;8.77;6.07;;;;;;;12.67;66.56;100373.34;5012220;28;101946;-48
2022/04/24 00:37:21;;;;;;;9.68;6.53;;;;;;;12.67;66.73;100385.06;5023601;28;102495;-48
2022/04/24 00:39:48;;;;;;;11.82;7.30;;;;;;;12.67;66.71;100387.81;5029116;27;104076;-48
2022/04/24 00:42:16;;;;;;;11.05;6.50;;;;;;;12.67;66.69;100384.28;5032941;27;101902;-52
2022/04/24 00:44:44;;;;;;;10.18;6.40;;;;;;;12.67;66.68;100390.53;5032456;27;102372;-51
2022/04/24 00:47:16;;;;;;;13.45;7.15;;;;;;;12.67;66.80;100387.81;5032395;27;102089;-49
2022/04/24 00:49:43;;;;;;;10.63;6.70;;;;;;;12.66;66.73;100378.00;5014041;28;103889;-49
2022/04/24 00:52:11;;;;;;;10.43;6.57;;;;;;;12.67;66.97;100368.69;5012861;28;101952;-51
2022/04/24 00:54:38;;;;;;;10.50;6.90;;;;;;;12.67;66.84;100371.44;5013746;28;102502;-48
2022/04/24 00:57:06;;;;;;;9.63;6.43;;;;;;;12.67;66.94;100365.97;5028966;28;102100;-50
2022/04/24 00:59:37;;;;;;;11.38;6.82;;;;;;;12.67;66.70;100363.22;5011501;28;103942;-48
2022/04/24 01:02:06;;;;;;;9.88;6.22;;;;;;;12.67;66.67;100368.69;5024238;28;102218;-49
2022/04/24 01:04:42;;;;;;;8.73;5.93;;;;;;;12.67;66.81;100379.63;5031939;27;102248;-50
2022/04/24 01:07:13;;;;;;;10.07;6.28;;;;;;;12.66;66.71;100388.91;5013831;27;102409;-48
2022/04/24 01:09:40;;;;;;;7.90;6.28;;;;;;;12.68;66.74;100403.06;5011248;28;103965;-49
2022/04/24 01:12:11;;;;;;;12.15;6.53;;;;;;;12.67;66.25;100411.56;5018625;27;102290;-49
2022/04/24 01:14:40;;;;;;;7.75;5.88;;;;;;;12.67;66.59;100420.56;5032183;27;102142;-48
2022/04/24 01:17:07;;;;;;;10.10;6.90;;;;;;;12.68;66.55;100430.38;5033228;27;102232;-49
2022/04/24 01:19:34;;;;;;;9.55;6.43;;;;;;;12.67;66.62;100428.75;5031681;27;103890;-49
2022/04/24 01:22:02;;;;;;;8.80;5.93;;;;;;;12.67;66.80;100423.31;5016480;28;102387;-49
2022/04/24 01:24:30;;;;;;;8.85;6.55;;;;;;;12.66;66.68;100427.13;5011918;28;102177;-49
2022/04/24 01:26:57;;;;;;;9.93;6.30;;;;;;;12.67;66.75;100428.75;5012145;28;102197;-49
2022/04/24 01:29:25;;;;;;;11.10;6.43;;;;;;;12.67;66.86;100439.69;5011367;28;104081;-49
2022/04/24 01:31:54;;;;;;;14.10;7.80;;;;;;;12.67;66.79;100445.16;5012117;28;102444;-51
2022/04/24 01:34:21;;;;;;;10.82;6.60;;;;;;;12.67;66.75;100450.59;5014957;28;102317;-49
2022/04/24 01:36:48;;;;;;;11.77;6.72;;;;;;;12.67;66.80;100449.78;5024759;27;102102;-49
2022/04/24 01:39:18;;;;;;;9.82;6.50;;;;;;;12.67;66.85;100445.16;5016018;28;103916;-48
2022/04/24 01:41:45;;;;;;;11.85;6.97;;;;;;;12.67;66.75;100453.34;5028220;27;102024;-50
2022/04/24 01:44:11;;;;;;;10.65;6.78;;;;;;;12.67;66.82;100456.06;5016723;27;101748;-49
2022/04/24 01:46:40;;;;;;;11.05;7.00;;;;;;;12.67;66.79;100466.19;5012711;28;101918;-50
2022/04/24 01:49:06;;;;;;;9.80;6.70;;;;;;;12.66;66.85;100476.28;5011357;28;103558;-50
2022/04/24 01:51:33;;;;;;;11.95;7.10;;;;;;;12.66;66.71;100470.81;5028157;28;102450;-49
2022/04/24 01:54:04;;;;;;;11.77;7.43;;;;;;;12.66;66.83;100470.81;5031900;27;102631;-49
2022/04/24 01:56:32;;;;;;;12.95;7.03;;;;;;;12.66;66.68;100470.81;5032244;27;102125;-49
2022/04/24 01:59:00;;;;;;;8.52;6.43;;;;;;;12.67;66.79;100469.72;5031154;27;103863;-49
2022/04/24 02:01:31;;;;;;;9.27;6.85;;;;;;;12.66;66.86;100465.38;5031359;28;102515;-48
2022/04/24 02:03:58;;;;;;;9.38;6.38;;;;;;;12.67;66.84;100472.44;5017005;27;102049;-49
2022/04/24 02:06:26;;;;;;;10.43;6.95;;;;;;;12.66;66.71;100470.81;5013838;28;102256;-49
2022/04/24 02:08:58;;;;;;;12.07;7.10;;;;;;;12.66;66.93;100481.75;5031362;27;103981;-49
2022/04/24 02:11:26;;;;;;;8.45;6.32;;;;;;;12.66;66.95;100462.63;5025321;27;102271;-48
2022/04/24 02:13:54;;;;;;;8.25;6.68;;;;;;;12.66;66.92;100465.38;5014894;28;101874;-51
2022/04/24 02:16:21;;;;;;;7.27;5.93;;;;;;;12.66;67.04;100465.38;5016070;28;102426;-49
2022/04/24 02:18:48;;;;;;;8.18;6.55;;;;;;;12.66;66.95;100459.91;5014628;28;103845;-49
2022/04/24 02:21:14;;;;;;;10.27;6.60;;;;;;;12.65;66.78;100469.19;5014766;28;102291;-51
2022/04/24 02:23:41;;;;;;;7.85;6.38;;;;;;;12.66;66.98;100459.91;5015147;28;102539;-48
2022/04/24 02:26:07;;;;;;;9.30;6.35;;;;;;;12.65;66.84;100469.19;5015283;28;102295;-49
2022/04/24 02:28:39;;;;;;;9.32;6.63;;;;;;;12.66;66.89;100465.38;5033681;28;103862;-49
2022/04/24 02:31:07;;;;;;;10.38;6.82;;;;;;;12.66;66.80;100472.75;5017391;27;102355;-48
2022/04/24 02:33:35;;;;;;;8.48;6.70;;;;;;;12.65;67.02;100461.00;5014813;28;102029;-49
2022/04/24 02:36:03;;;;;;;10.10;6.68;;;;;;;12.65;66.96;100463.72;5015514;28;102091;-52
2022/04/24 02:38:34;;;;;;;11.23;6.80;;;;;;;12.65;67.05;100463.72;5014275;28;104140;-50
2022/04/24 02:41:00;;;;;;;8.68;6.63;;;;;;;12.66;66.95;100467.28;5032783;28;102384;-49
2022/04/24 02:43:28;;;;;;;9.05;6.28;;;;;;;12.66;66.83;100464.56;5014252;28;102449;-50
2022/04/24 02:45:56;;;;;;;8.57;6.50;;;;;;;12.65;66.84;100474.63;5024179;28;102040;-52
2022/04/24 02:48:28;;;;;;;10.02;6.97;;;;;;;12.65;66.96;100474.63;5034940;27;104701;-49
2022/04/24 02:50:54;;;;;;;8.87;6.50;;;;;;;12.65;66.91;100476.56;5034996;27;102077;-50
2022/04/24 02:53:21;;;;;;;7.80;6.35;;;;;;;12.65;66.98;100474.63;5034386;27;101935;-49
2022/04/24 02:55:48;;;;;;;7.72;6.20;;;;;;;12.65;66.84;100466.44;5034725;27;102181;-49
2022/04/24 02:58:14;;;;;;;9.35;6.90;;;;;;;12.65;66.82;100482.03;5014536;27;104480;-49
2022/04/24 03:00:43;;;;;;;9.83;6.90;;;;;;;12.65;67.04;100485.56;5014031;28;102376;-49
2022/04/24 03:03:11;;;;;;;9.17;7.20;;;;;;;12.65;66.98;100484.75;5014444;28;102106;-49
2022/04/24 03:05:40;;;;;;;10.45;7.05;;;;;;;12.65;66.88;100496.47;5015091;28;102397;-51
2022/04/24 03:08:12;;;;;;;9.23;6.40;;;;;;;12.65;66.95;100501.13;5014325;28;104030;-49
2022/04/24 03:10:38;;;;;;;7.68;5.93;;;;;;;12.66;66.91;100502.78;5014400;28;101976;-49
2022/04/24 03:13:05;;;;;;;9.20;6.70;;;;;;;12.66;67.02;100508.25;5013075;28;102263;-49
2022/04/24 03:15:37;;;;;;;9.43;6.78;;;;;;;12.65;66.94;100506.59;5015233;28;102256;-49
2022/04/24 03:18:04;;;;;;;10.88;6.97;;;;;;;12.66;67.17;100513.69;5013788;28;104072;-51
2022/04/24 03:20:31;;;;;;;10.05;6.28;;;;;;;12.64;66.84;100513.97;5015454;27;102377;-48
2022/04/24 03:22:59;;;;;;;10.43;6.75;;;;;;;12.65;66.91;100523.78;5023151;27;102126;-50
2022/04/24 03:25:30;;;;;;;9.88;6.95;;;;;;;12.65;66.94;100531.97;5035063;27;102543;-48
2022/04/24 03:27:59;;;;;;;9.45;6.53;;;;;;;12.65;66.92;100534.69;5026658;27;104386;-48
2022/04/24 03:30:26;;;;;;;7.65;6.78;;;;;;;12.65;67.14;100534.69;5033646;27;102993;-48
2022/04/24 03:32:54;;;;;;;8.90;6.53;;;;;;;12.66;67.01;100535.53;5034005;27;102335;-50
2022/04/24 03:35:21;;;;;;;9.32;6.90;;;;;;;12.65;66.91;100534.69;5034971;27;102207;-48
2022/04/24 03:37:47;;;;;;;6.68;5.95;;;;;;;12.65;66.75;100553.81;5025109;27;103799;-48
2022/04/24 03:40:15;;;;;;;6.97;6.18;;;;;;;12.66;66.86;100555.47;5023805;28;102070;-49
2022/04/24 03:42:51;;;;;;;7.90;6.25;;;;;;;12.65;66.89;100556.53;5032800;27;101925;-49
2022/04/24 03:45:18;;;;;;;9.10;6.63;;;;;;;12.66;66.82;100554.66;5014419;28;102372;-49
2022/04/24 03:47:47;;;;;;;7.38;6.10;;;;;;;12.66;66.77;100566.38;5013051;28;103703;-49
2022/04/24 03:50:14;;;;;;;7.17;6.00;;;;;;;12.68;66.85;100561.44;5019175;28;102764;-50
2022/04/24 03:52:41;;;;;;;6.40;5.78;;;;;;;12.68;66.87;100546.97;5013595;28;102196;-48
2022/04/24 03:55:09;;;;;;;7.75;6.15;;;;;;;12.69;66.98;100559.50;5014510;28;102166;-49
2022/04/24 03:57:39;;;;;;;8.85;6.30;;;;;;;12.70;66.79;100563.88;5012907;28;104089;-48
2022/04/24 04:00:10;;;;;;;7.72;6.13;;;;;;;12.69;66.82;100564.97;5013869;28;101900;-49
2022/04/24 04:02:56;;;;;;;9.07;7.28;;;;;;;12.70;66.70;100564.69;5013213;28;101955;-49
2022/04/24 04:05:23;;;;;;;9.73;7.10;;;;;;;12.70;66.59;100570.16;5013931;28;102597;-49
2022/04/24 04:07:55;;;;;;;9.38;7.22;;;;;;;12.72;66.63;100575.31;5012931;28;104029;-49
2022/04/24 04:10:32;;;;;;;11.05;7.55;;;;;;;12.71;66.58;100577.25;5013275;28;102156;-48
2022/04/24 04:13:07;;;;;;;9.93;7.40;;;;;;;12.73;66.23;100580.50;5013302;28;101874;-49
2022/04/24 04:15:34;;;;;;;11.65;8.25;;;;;;;12.77;66.47;100590.84;5014025;28;102372;-50
2022/04/24 04:18:02;;;;;;;10.60;7.55;;;;;;;12.78;66.44;100581.56;5012515;28;103878;-49
2022/04/24 04:20:32;;;;;;;11.13;7.35;;;;;;;12.78;66.31;100592.47;5012674;28;102339;-49
2022/04/24 04:23:03;;;;;;;10.38;7.20;;;;;;;12.80;66.39;100602.00;5012926;28;102366;-49
2022/04/24 04:25:30;;;;;;;11.50;7.00;;;;;;;12.81;66.38;100600.09;5019074;28;102559;-51
2022/04/24 04:27:56;;;;;;;9.48;6.97;;;;;;;12.82;66.10;100605.25;5018825;27;104232;-48
2022/04/24 04:30:27;;;;;;;10.55;7.13;;;;;;;12.85;66.39;100609.34;5025205;27;101971;-51
2022/04/24 04:32:56;;;;;;;11.25;6.78;;;;;;;12.86;66.40;100613.69;5013369;28;102374;-50
2022/04/24 04:35:23;;;;;;;8.55;6.70;;;;;;;12.85;66.27;100603.88;5013087;28;102286;-49
2022/04/24 04:37:50;;;;;;;7.88;6.40;;;;;;;12.87;66.25;100607.13;5012389;28;104070;-49
2022/04/24 04:40:20;;;;;;;7.25;6.15;;;;;;;12.89;66.27;100610.38;5026582;28;101784;-48
2022/04/24 04:42:50;;;;;;;7.43;6.65;;;;;;;12.89;66.42;100607.66;5030174;28;102117;-48
2022/04/24 04:45:17;;;;;;;9.70;6.72;;;;;;;12.91;66.29;100608.16;5013750;28;102102;-48
2022/04/24 04:47:47;;;;;;;10.48;6.30;;;;;;;12.91;66.33;100602.69;5011971;28;103841;-48
2022/04/24 04:50:14;;;;;;;7.53;6.32;;;;;;;12.93;66.48;100603.22;5012528;28;102079;-48
2022/04/24 04:52:41;;;;;;;7.75;6.20;;;;;;;12.94;66.36;100602.94;5012436;28;101826;-49
2022/04/24 04:55:11;;;;;;;8.18;6.60;;;;;;;12.95;66.59;100596.38;5013709;28;102446;-49
2022/04/24 04:57:40;;;;;;;9.32;6.38;;;;;;;12.97;66.35;100596.09;5013903;28;104056;-49
2022/04/24 05:00:07;;;;;;;7.25;6.05;;;;;;;12.96;66.44;100589.81;5030631;27;103532;-48
2022/04/24 05:02:37;;;;;;;8.65;6.78;;;;;;;12.99;66.54;100593.88;5032247;27;102564;-48
2022/04/24 05:05:09;;;;;;;8.80;6.47;;;;;;;13.00;66.47;100600.97;5033389;27;102136;-49
2022/04/24 05:07:38;;;;;;;9.10;6.43;;;;;;;13.01;66.35;100597.13;5031892;27;104078;-49
2022/04/24 05:10:06;;;;;;;11.05;7.07;;;;;;;13.02;66.57;100604.25;5031691;27;102787;-49
2022/04/24 05:12:40;;;;;;;8.00;6.32;;;;;;;13.03;66.47;100605.84;5038479;27;102328;-49
2022/04/24 05:15:09;;;;;;;10.50;6.43;;;;;;;13.04;66.49;100607.47;5037697;27;102688;-49
2022/04/24 05:17:41;;;;;;;7.30;6.43;;;;;;;13.06;66.53;100604.47;5018989;27;104063;-48
2022/04/24 05:20:13;;;;;;;9.32;6.65;;;;;;;13.07;66.61;100604.16;5024209;27;102468;-48
2022/04/24 05:22:41;;;;;;;8.85;7.32;;;;;;;13.09;66.46;100603.88;5027154;27;102295;-48
2022/04/24 05:25:09;;;;;;;8.48;6.38;;;;;;;13.11;66.50;100613.41;5028921;27;102166;-48
2022/04/24 05:27:37;;;;;;;8.30;6.35;;;;;;;13.12;66.38;100609.56;5021458;27;104161;-48
2022/04/24 05:30:08;;;;;;;7.90;6.72;;;;;;;13.13;66.32;100616.69;5025117;27;102332;-49
2022/04/24 05:32:39;;;;;;;;;;;;;;;13.15;66.40;100625.38;5027480;28;102638;-49
2022/04/24 05:35:08;;;;;;;9.30;6.80;;;;;;;13.15;66.64;100625.38;5028745;27;102270;-50
2022/04/24 05:37:36;;;;;;;8.55;7.22;;;;;;;13.19;66.59;100625.63;5003147;28;103897;-49
2022/04/24 05:40:05;;;;;;;8.25;6.70;;;;;;;13.19;66.25;100631.88;5030714;27;102235;-49
2022/04/24 05:42:31;;;;;;;8.03;7.17;;;;;;;13.20;66.75;100633.53;5031401;27;102373;-49
2022/04/24 05:45:01;;;;;;;9.32;7.18;;;;;;;13.22;66.52;100634.03;5034917;27;103261;-50
2022/04/24 05:47:28;;;;;;;8.20;6.78;;;;;;;13.22;66.75;100636.78;5013219;28;103920;-49
2022/04/24 05:49:55;;;;;;;9.73;7.38;;;;;;;13.25;66.65;100634.63;5023937;28;102557;-49
2022/04/24 05:52:21;;;;;;;10.30;7.15;;;;;;;13.26;66.43;100630.75;5034274;28;102115;-49
2022/04/24 05:54:49;;;;;;;8.20;6.93;;;;;;;13.27;66.66;100632.38;5036098;27;102260;-49
2022/04/24 05:57:16;;;;;;;7.72;6.72;;;;;;;13.28;66.71;100628.56;5033464;28;103936;-49
2022/04/24 05:59:44;;;;;;;9.53;6.63;;;;;;;13.28;66.60;100634.84;5019990;27;102980;-49
2022/04/24 06:02:11;;;;;;;7.95;6.85;;;;;;;13.29;66.61;100636.47;5027978;27;102404;-49
2022/04/24 06:04:40;;;;;;;9.05;6.63;;;;;;;13.30;66.61;100643.53;5036103;27;102729;-49
2022/04/24 06:07:07;;;;;;;8.68;6.95;;;;;;;13.31;66.70;100641.66;5029799;27;104530;-49
2022/04/24 06:09:34;;;;;;;9.93;6.75;;;;;;;13.32;66.50;100640.53;5026246;27;102528;-49
2022/04/24 06:12:08;;;;;;;8.80;6.80;;;;;;;13.33;66.61;100647.63;5025147;27;102570;-49
2022/04/24 06:14:35;;;;;;;9.50;6.93;;;;;;;13.34;66.53;100643.78;5021492;27;102338;-49
2022/04/24 06:17:01;;;;;;;8.48;7.15;;;;;;;13.35;66.58;100653.63;5025658;27;103978;-48
2022/04/24 06:19:43;;;;;;;7.82;6.80;;;;;;;13.36;66.39;100660.72;5022093;27;102017;-48
2022/04/24 06:22:12;;;;;;;8.40;7.07;;;;;;;13.37;66.42;100654.13;5034820;27;102115;-48
2022/04/24 06:24:39;;;;;;;8.40;6.18;;;;;;;13.37;66.54;100660.41;5035145;27;101985;-49
2022/04/24 06:27:07;;;;;;;8.65;6.95;;;;;;;13.38;66.44;100663.94;5031399;27;103854;-48
2022/04/24 06:29:34;;;;;;;7.80;6.88;;;;;;;13.39;66.56;100665.59;5027286;27;102130;-50
2022/04/24 06:32:04;;;;;;;7.53;6.63;;;;;;;13.38;66.60;100673.00;5033284;27;102217;-48
2022/04/24 06:34:31;;;;;;;7.78;6.88;;;;;;;13.40;66.13;100667.22;5036007;27;102323;-48
2022/04/24 06:36:58;;;;;;;8.07;7.18;;;;;;;13.39;66.39;100679.28;5033969;27;103893;-49
2022/04/24 06:39:27;;;;;;;8.57;7.28;;;;;;;13.41;66.47;100668.84;5045499;27;102288;-51
2022/04/24 06:41:58;;;;;;;8.23;6.90;;;;;;;13.41;66.35;100660.63;5034774;27;102676;-50
2022/04/24 06:44:27;;;;;;;9.13;7.57;;;;;;;13.41;66.41;100661.44;5036047;27;102143;-49
2022/04/24 06:46:53;;;;;;;8.82;6.70;;;;;;;13.43;66.33;100664.72;5034374;27;103888;-51
2022/04/24 06:49:22;;;;;;;;;;;;;;;13.44;66.52;100660.06;5027379;27;101987;-50
2022/04/24 06:51:48;;;;;;;8.13;6.95;;;;;;;13.44;66.63;100654.59;5047638;27;102026;-50
2022/04/24 06:54:15;;;;;;;7.30;6.50;;;;;;;13.45;66.44;100662.53;5043327;27;101942;-49
2022/04/24 06:56:44;;;;;;;7.78;6.95;;;;;;;13.46;66.35;100657.88;5017731;27;104092;-49
2022/04/24 06:59:10;;;;;;;8.85;6.72;;;;;;;13.47;66.32;100656.75;5033024;27;102238;-49
2022/04/24 07:01:38;;;;;;;8.02;7.22;;;;;;;13.48;66.63;100650.16;5029026;27;102448;-51
2022/04/24 07:04:06;;;;;;;9.10;7.43;;;;;;;13.49;66.24;100656.44;5015620;28;102329;-50
2022/04/24 07:06:33;;;;;;;11.07;7.05;;;;;;;13.48;66.35;100661.09;5013386;28;103735;-49
2022/04/24 07:09:00;;;;;;;7.88;6.72;;;;;;;13.49;66.15;100651.81;5013911;28;101929;-49
2022/04/24 07:11:30;;;;;;;8.10;6.30;;;;;;;13.50;66.32;100658.91;5019316;27;102155;-49
2022/04/24 07:14:00;;;;;;;7.70;6.68;;;;;;;13.51;66.31;100655.06;5035799;27;102123;-48
2022/04/24 07:16:27;;;;;;;9.02;6.50;;;;;;;13.52;66.64;100662.16;5027596;27;103930;-49
2022/04/24 07:18:55;;;;;;;7.45;6.65;;;;;;;13.53;66.35;100655.59;5028954;27;103032;-49
2022/04/24 07:21:22;;;;;;;8.40;6.80;;;;;;;13.54;66.47;100667.34;5036351;27;102557;-49
2022/04/24 07:23:48;;;;;;;7.15;6.22;;;;;;;13.54;66.30;100662.69;5020833;27;102572;-49
2022/04/24 07:26:17;;;;;;;;;;;;;;;13.55;66.25;100663.50;5025361;27;104464;-48
2022/04/24 07:28:45;;;;;;;9.80;6.65;;;;;;;13.55;66.59;100667.03;5029793;27;102222;-49
2022/04/24 07:31:14;;;;;;;7.38;6.00;;;;;;;13.56;66.40;100668.69;5033792;27;102280;-49
2022/04/24 07:33:40;;;;;;;;;;;;;;;13.58;66.31;100671.09;5034970;27;102413;-49
2022/04/24 07:36:08;;;;;;;10.07;6.80;;;;;;;13.58;66.40;100666.44;5033040;27;103855;-49
2022/04/24 07:38:35;;;;;;;6.40;5.47;;;;;;;13.59;66.31;100672.72;5034143;27;102065;-49
2022/04/24 07:41:03;;;;;;;6.85;6.15;;;;;;;13.60;66.41;100671.66;5033191;27;101855;-50
2022/04/24 07:43:29;;;;;;;7.63;5.93;;;;;;;13.59;66.43;100662.59;5034948;27;102263;-48
2022/04/24 07:45:57;;;;;;;6.90;6.20;;;;;;;13.61;66.39;100673.25;5033099;28;103892;-48
2022/04/24 07:48:26;;;;;;;7.10;6.07;;;;;;;13.62;66.21;100672.16;5033842;27;102422;-50
2022/04/24 07:50:53;;;;;;;7.35;6.45;;;;;;;13.63;66.54;100679.25;5033972;27;101899;-50
2022/04/24 07:53:21;;;;;;;6.35;5.75;;;;;;;13.63;66.59;100674.59;5034701;27;102827;-48
2022/04/24 07:55:52;;;;;;;8.02;5.57;;;;;;;13.63;66.48;100682.81;5033508;27;103756;-50
2022/04/24 07:58:19;;;;;;;6.60;5.78;;;;;;;13.64;66.38;100670.75;5033572;27;102108;-49
2022/04/24 08:00:47;;;;;;;6.97;6.10;;;;;;;13.63;66.33;100669.13;5033551;28;101808;-49
2022/04/24 08:03:15;;;;;;;6.47;5.82;;;;;;;13.65;66.20;100666.91;5028743;27;102101;-49
2022/04/24 08:05:43;;;;;;;6.35;5.75;;;;;;;13.66;66.38;100668.53;5012775;28;103860;-48
2022/04/24 08:08:13;;;;;;;6.07;5.47;;;;;;;13.66;66.38;100668.53;5013282;28;102223;-49
2022/04/24 08:10:44;;;;;;;5.75;5.25;;;;;;;13.66;66.38;100668.53;5022730;28;102518;-48
2022/04/24 08:13:11;;;;;;;7.95;6.35;;;;;;;13.67;66.62;100664.72;5033871;27;102230;-48
2022/04/24 08:15:38;;;;;;;7.35;5.90;;;;;;;13.68;66.32;100665.53;5032592;27;103880;-48
2022/04/24 08:18:06;;;;;;;7.85;6.05;;;;;;;13.67;66.39;100667.44;5033154;27;102484;-48
2022/04/24 08:20:39;;;;;;;7.13;6.10;;;;;;;13.66;66.29;100663.06;5033157;27;102502;-48
2022/04/24 08:23:07;;;;;;;7.05;6.13;;;;;;;13.66;66.39;100665.78;5033623;27;102384;-49
2022/04/24 08:25:35;;;;;;;6.70;5.53;;;;;;;13.67;66.54;100659.25;5024354;27;104007;-49
2022/04/24 08:28:06;;;;;;;6.65;5.82;;;;;;;13.66;66.20;100663.06;5023369;28;102676;-48
2022/04/24 08:30:36;;;;;;;6.32;5.72;;;;;;;13.67;66.25;100667.44;5032366;27;102237;-50
2022/04/24 08:33:04;;;;;;;6.75;6.05;;;;;;;13.66;66.24;100657.59;5033735;28;102357;-49
2022/04/24 08:35:30;;;;;;;6.50;5.85;;;;;;;13.66;66.41;100663.06;5032359;27;103891;-48
2022/04/24 08:37:57;;;;;;;7.05;5.80;;;;;;;13.66;66.42;100654.84;5032728;27;102298;-49
2022/04/24 08:40:33;;;;;;;6.38;5.78;;;;;;;13.66;66.20;100654.03;5032456;27;102386;-52
2022/04/24 08:43:00;;;;;;;6.30;5.68;;;;;;;13.66;66.65;100657.59;5034119;27;102115;-48
2022/04/24 08:45:29;;;;;;;6.45;5.70;;;;;;;13.66;66.24;100663.06;5032594;27;104041;-49
2022/04/24 08:47:58;;;;;;;6.00;5.22;;;;;;;13.65;66.22;100672.38;5021684;27;102471;-50
2022/04/24 08:50:27;;;;;;;8.27;5.82;;;;;;;13.65;66.14;100668.84;5012508;28;102364;-48
2022/04/24 08:52:56;;;;;;;7.30;5.65;;;;;;;13.65;66.19;100666.91;5028918;28;102271;-50
2022/04/24 08:55:26;;;;;;;6.55;5.65;;;;;;;13.64;66.32;100670.75;5032421;27;104061;-49
2022/04/24 08:57:52;;;;;;;6.00;5.47;;;;;;;13.65;66.16;100679.78;5032452;27;102398;-49
2022/04/24 09:00:20;;;;;;;6.45;5.63;;;;;;;13.64;66.15;100681.69;5032567;27;102040;-48
2022/04/24 09:02:53;;;;;;;5.95;5.45;;;;;;;13.65;66.15;100682.50;5033600;27;101922;-49
2022/04/24 09:05:21;;;;;;;7.00;5.97;;;;;;;13.64;66.28;100692.63;5032021;27;103837;-49
2022/04/24 09:07:48;;;;;;;6.10;5.50;;;;;;;13.63;66.03;100687.44;5032050;27;102206;-48
2022/04/24 09:10:16;;;;;;;5.95;5.35;;;;;;;13.63;66.17;100680.06;5032461;27;101830;-49
2022/04/24 09:12:43;;;;;;;6.68;5.85;;;;;;;13.62;66.35;100678.44;5033603;27;102583;-49
2022/04/24 09:15:16;;;;;;;6.13;5.30;;;;;;;13.62;66.13;100667.50;5032135;27;104439;-48
2022/04/24 09:17:42;;;;;;;7.18;5.55;;;;;;;13.61;66.03;100676.81;5032117;27;101965;-48
2022/04/24 09:20:20;;;;;;;5.88;5.25;;;;;;;13.62;66.01;100680.34;5032190;27;101904;-49
2022/04/24 09:22:49;;;;;;;5.57;5.05;;;;;;;13.61;66.11;100685.00;5017608;27;102179;-49
2022/04/24 09:25:16;;;;;;;6.97;5.88;;;;;;;13.60;66.17;100680.66;5023348;27;103841;-49
2022/04/24 09:27:42;;;;;;;6.90;5.60;;;;;;;13.61;66.23;100687.75;5024798;27;102211;-48
2022/04/24 09:30:10;;;;;;;6.18;5.40;;;;;;;13.61;66.20;100682.28;5031258;27;102212;-48
2022/04/24 09:32:48;;;;;;;5.47;4.97;;;;;;;13.60;66.30;100682.59;5031370;28;102621;-49
2022/04/24 09:35:27;;;;;;;5.82;5.00;;;;;;;13.59;66.27;100687.22;5022659;27;103797;-49
2022/04/24 09:38:06;;;;;;;5.90;5.35;;;;;;;13.59;66.13;100695.41;5029946;27;102463;-48
2022/04/24 09:40:40;;;;;;;5.55;5.05;;;;;;;13.59;66.16;100700.88;5011994;28;102427;-49
2022/04/24 09:43:10;;;;;;;5.13;4.63;;;;;;;13.60;66.24;100699.00;5026771;27;102436;-49
2022/04/24 09:45:39;;;;;;;5.68;5.10;;;;;;;13.60;66.34;100701.72;5027864;27;104206;-48
2022/04/24 09:48:12;;;;;;;5.35;4.70;;;;;;;13.59;66.09;100711.81;5018717;27;102572;-49
2022/04/24 09:50:42;;;;;;;5.43;4.93;;;;;;;13.59;66.21;100714.56;5028515;27;102523;-48
2022/04/24 09:53:12;;;;;;;6.25;5.53;;;;;;;13.59;66.19;100717.28;5014661;27;102382;-48
2022/04/24 09:55:43;;;;;;;7.63;5.50;;;;;;;13.59;66.17;100722.75;5019548;28;103994;-49
2022/04/24 09:58:11;;;;;;;7.05;6.32;;;;;;;13.59;66.19;100711.00;5030882;28;101750;-51
2022/04/24 10:00:41;;;;;;;6.78;5.93;;;;;;;13.59;66.08;100706.34;5030498;27;102540;-48
2022/04/24 10:03:14;;;;;;;7.75;6.38;;;;;;;13.58;66.30;100710.19;5025812;27;102780;-49
2022/04/24 10:05:45;;;;;;;8.40;7.03;;;;;;;13.60;66.34;100708.00;5015312;28;103929;-49
2022/04/24 10:08:12;;;;;;;8.88;6.70;;;;;;;13.61;66.35;100709.63;5024270;27;102575;-49
2022/04/24 10:10:43;;;;;;;9.05;7.43;;;;;;;13.61;66.35;100697.88;5020272;27;101998;-49
2022/04/24 10:13:18;;;;;;;7.45;6.35;;;;;;;13.61;66.41;100693.22;5025046;27;102675;-49
2022/04/24 10:15:49;;;;;;;8.90;7.10;;;;;;;13.63;66.57;100703.84;5014183;27;103880;-49
2022/04/24 10:18:33;;;;;;;9.63;7.38;;;;;;;13.62;66.40;100692.09;5023145;27;102796;-49
2022/04/24 10:21:21;;;;;;;9.75;7.57;;;;;;;13.63;66.35;100674.59;5033835;27;102559;-49
2022/04/24 10:23:49;;;;;;;8.07;7.15;;;;;;;13.62;66.47;100689.38;5010229;28;102291;-48
2022/04/24 10:26:29;;;;;;;6.88;6.18;;;;;;;13.61;66.32;100693.22;5010644;28;103998;-49
2022/04/24 10:29:02;;;;;;;8.07;6.03;;;;;;;13.61;66.58;100687.75;5010668;28;101934;-50
2022/04/24 10:31:42;;;;;;;8.95;6.35;;;;;;;13.60;66.23;100691.59;5023781;28;101892;-50
2022/04/24 10:34:08;;;;;;;6.68;5.70;;;;;;;13.60;66.13;100688.84;5034852;27;102403;-50
2022/04/24 10:36:37;;;;;;;6.97;6.28;;;;;;;13.60;66.29;100696.25;5033301;27;103759;-48
2022/04/24 10:39:17;;;;;;;7.90;6.70;;;;;;;13.58;66.29;100688.31;5017006;27;102481;-48
2022/04/24 10:41:54;;;;;;;7.15;6.47;;;;;;;13.59;66.04;100695.41;5020100;27;102265;-49
2022/04/24 10:44:22;;;;;;;6.47;5.80;;;;;;;13.58;66.24;100692.97;5034705;27;102379;-48
2022/04/24 10:46:54;;;;;;;6.70;6.00;;;;;;;13.58;66.14;100693.78;5017018;27;103910;-48
2022/04/24 10:49:25;;;;;;;6.10;5.50;;;;;;;13.59;66.38;100689.13;5033288;27;102089;-49
2022/04/24 10:52:00;;;;;;;8.90;6.05;;;;;;;13.58;66.39;100688.31;5032654;28;101974;-48
2022/04/24 10:54:38;;;;;;;6.80;5.97;;;;;;;13.56;66.23;100679.63;5015866;27;102836;-48
2022/04/24 10:57:16;;;;;;;6.53;5.85;;;;;;;13.56;66.39;100685.09;5034066;27;103899;-50
2022/04/24 10:59:45;;;;;;;7.43;6.25;;;;;;;13.57;66.30;100689.44;5014229;28;102427;-48
2022/04/24 11:02:12;;;;;;;8.73;6.25;;;;;;;13.56;66.17;100685.09;5034465;27;102025;-48
2022/04/24 11:04:40;;;;;;;6.28;5.65;;;;;;;13.56;66.41;100685.09;5035344;27;102594;-49
2022/04/24 11:07:18;;;;;;;6.78;6.00;;;;;;;13.56;66.24;100678.78;5030520;27;104029;-50
2022/04/24 11:10:00;;;;;;;6.03;5.50;;;;;;;13.56;66.28;100678.78;5024540;27;102489;-50
2022/04/24 11:12:31;;;;;;;6.43;5.50;;;;;;;13.56;66.21;100689.72;5014511;28;102272;-49
2022/04/24 11:15:02;;;;;;;6.10;5.57;;;;;;;13.55;66.18;100683.44;5030646;27;102503;-49
2022/04/24 11:17:29;;;;;;;6.22;5.43;;;;;;;13.55;66.32;100688.91;5037801;27;103932;-49
2022/04/24 11:20:00;;;;;;;6.35;5.80;;;;;;;13.54;66.19;100692.75;5015590;27;102157;-49
2022/04/24 11:22:30;;;;;;;5.72;4.85;;;;;;;13.54;66.38;100687.28;5025037;27;102574;-49
2022/04/24 11:25:01;;;;;;;6.60;5.38;;;;;;;13.53;66.41;100696.59;5031780;27;101951;-48